Terminal Aerodrome Forecast
Issued by NWS Sterling, VA

Current Version | Previous Version | Graphics & Text | Print | Product List | Glossary On
Versions: 1 2 3 4 5 6 7 8 9 10 11 12 13 14 15 16 17 18 19 20 21 22 23 24
753
FTUS41 KLWX 031123
TAFDCA
TAF
KDCA 031123Z 0312/0412 29009KT P6SM SCT060
     FM031400 31012G21KT P6SM SCT060
     FM032200 31009KT P6SM SCT060
     FM040800 31005KT P6SM SCT200=

USA.gov is the U.S. government's official web portal to all federal, state and local government web resources and services.